sensor_id;sensor_type;location;lat;lon;timestamp;P1;durP1;ratioP1;P2;durP2;ratioP2
76795;SDS011;65745;50.278;18.192;2023-07-02T00:01:09;21.50;;;19.10;;
76795;SDS011;65745;50.278;18.192;2023-07-02T00:04:01;19.30;;;12.10;;
76795;SDS011;65745;50.278;18.192;2023-07-02T00:06:34;15.00;;;10.20;;
76795;SDS011;65745;50.278;18.192;2023-07-02T00:09:09;14.80;;;9.00;;
76795;SDS011;65745;50.278;18.192;2023-07-02T00:11:42;15.60;;;8.50;;
76795;SDS011;65745;50.278;18.192;2023-07-02T00:14:15;13.50;;;9.20;;
76795;SDS011;65745;50.278;18.192;2023-07-02T00:16:48;16.30;;;8.40;;
76795;SDS011;65745;50.278;18.192;2023-07-02T00:19:20;14.90;;;8.90;;
76795;SDS011;65745;50.278;18.192;2023-07-02T00:21:52;10.70;;;8.20;;
76795;SDS011;65745;50.278;18.192;2023-07-02T00:24:24;13.30;;;8.90;;
76795;SDS011;65745;50.278;18.192;2023-07-02T00:26:56;12.90;;;8.30;;
76795;SDS011;65745;50.278;18.192;2023-07-02T00:29:28;14.30;;;8.30;;
76795;SDS011;65745;50.278;18.192;2023-07-02T00:32:01;11.40;;;7.70;;
76795;SDS011;65745;50.278;18.192;2023-07-02T00:34:33;13.70;;;9.00;;
76795;SDS011;65745;50.278;18.192;2023-07-02T00:37:05;13.00;;;8.10;;
76795;SDS011;65745;50.278;18.192;2023-07-02T00:39:38;14.10;;;8.00;;
76795;SDS011;65745;50.278;18.192;2023-07-02T00:42:10;10.00;;;8.50;;
76795;SDS011;65745;50.278;18.192;2023-07-02T00:44:42;16.10;;;8.60;;
76795;SDS011;65745;50.278;18.192;2023-07-02T00:47:15;12.60;;;8.70;;
76795;SDS011;65745;50.278;18.192;2023-07-02T00:49:47;11.30;;;8.00;;
76795;SDS011;65745;50.278;18.192;2023-07-02T00:52:20;12.00;;;9.10;;
76795;SDS011;65745;50.278;18.192;2023-07-02T00:54:54;21.80;;;15.80;;
76795;SDS011;65745;50.278;18.192;2023-07-02T00:57:26;20.40;;;15.20;;
76795;SDS011;65745;50.278;18.192;2023-07-02T00:59:59;15.50;;;11.00;;
76795;SDS011;65745;50.278;18.192;2023-07-02T01:02:33;15.00;;;8.60;;
76795;SDS011;65745;50.278;18.192;2023-07-02T01:05:05;11.50;;;7.80;;
76795;SDS011;65745;50.278;18.192;2023-07-02T01:07:38;12.00;;;7.20;;
76795;SDS011;65745;50.278;18.192;2023-07-02T01:10:10;13.60;;;9.50;;
76795;SDS011;65745;50.278;18.192;2023-07-02T01:12:43;16.90;;;9.00;;
76795;SDS011;65745;50.278;18.192;2023-07-02T01:15:16;13.60;;;8.70;;
76795;SDS011;65745;50.278;18.192;2023-07-02T01:17:48;11.30;;;7.90;;
76795;SDS011;65745;50.278;18.192;2023-07-02T01:20:22;12.40;;;8.00;;
76795;SDS011;65745;50.278;18.192;2023-07-02T01:22:56;10.90;;;7.80;;
76795;SDS011;65745;50.278;18.192;2023-07-02T01:28:06;15.30;;;8.90;;
76795;SDS011;65745;50.278;18.192;2023-07-02T01:30:41;14.50;;;8.70;;
76795;SDS011;65745;50.278;18.192;2023-07-02T01:33:13;11.40;;;7.90;;
76795;SDS011;65745;50.278;18.192;2023-07-02T01:35:46;18.90;;;9.00;;
76795;SDS011;65745;50.278;18.192;2023-07-02T01:38:18;16.00;;;8.60;;
76795;SDS011;65745;50.278;18.192;2023-07-02T01:40:51;10.50;;;8.10;;
76795;SDS011;65745;50.278;18.192;2023-07-02T01:43:23;13.00;;;8.70;;
76795;SDS011;65745;50.278;18.192;2023-07-02T01:45:56;10.50;;;8.10;;
76795;SDS011;65745;50.278;18.192;2023-07-02T01:48:28;11.00;;;8.60;;
76795;SDS011;65745;50.278;18.192;2023-07-02T01:51:00;8.90;;;7.30;;
76795;SDS011;65745;50.278;18.192;2023-07-02T01:53:33;11.50;;;7.80;;
76795;SDS011;65745;50.278;18.192;2023-07-02T01:56:05;13.70;;;8.40;;
76795;SDS011;65745;50.278;18.192;2023-07-02T01:58:37;12.50;;;7.60;;
76795;SDS011;65745;50.278;18.192;2023-07-02T02:01:09;12.60;;;7.90;;
76795;SDS011;65745;50.278;18.192;2023-07-02T02:03:41;15.30;;;8.60;;
76795;SDS011;65745;50.278;18.192;2023-07-02T02:06:13;13.90;;;7.20;;
76795;SDS011;65745;50.278;18.192;2023-07-02T02:08:47;11.30;;;8.20;;
76795;SDS011;65745;50.278;18.192;2023-07-02T02:11:19;13.00;;;7.80;;
76795;SDS011;65745;50.278;18.192;2023-07-02T02:13:51;11.80;;;6.90;;
76795;SDS011;65745;50.278;18.192;2023-07-02T02:16:23;12.80;;;6.90;;
76795;SDS011;65745;50.278;18.192;2023-07-02T02:18:57;11.60;;;7.20;;
76795;SDS011;65745;50.278;18.192;2023-07-02T02:21:29;14.30;;;7.20;;
76795;SDS011;65745;50.278;18.192;2023-07-02T02:24:01;9.20;;;7.00;;
76795;SDS011;65745;50.278;18.192;2023-07-02T02:26:33;9.80;;;6.90;;
76795;SDS011;65745;50.278;18.192;2023-07-02T02:29:05;11.20;;;7.30;;
76795;SDS011;65745;50.278;18.192;2023-07-02T02:31:38;11.30;;;7.20;;
76795;SDS011;65745;50.278;18.192;2023-07-02T02:34:11;16.80;;;7.80;;
76795;SDS011;65745;50.278;18.192;2023-07-02T02:36:43;14.00;;;8.10;;
76795;SDS011;65745;50.278;18.192;2023-07-02T02:39:16;16.60;;;8.60;;
76795;SDS011;65745;50.278;18.192;2023-07-02T02:41:48;10.30;;;7.30;;
76795;SDS011;65745;50.278;18.192;2023-07-02T02:44:21;16.40;;;7.10;;
76795;SDS011;65745;50.278;18.192;2023-07-02T02:46:53;11.40;;;7.60;;
76795;SDS011;65745;50.278;18.192;2023-07-02T02:49:26;8.90;;;6.80;;
76795;SDS011;65745;50.278;18.192;2023-07-02T02:51:58;10.90;;;6.70;;
76795;SDS011;65745;50.278;18.192;2023-07-02T02:54:30;11.10;;;7.20;;
76795;SDS011;65745;50.278;18.192;2023-07-02T02:57:02;10.80;;;7.60;;
76795;SDS011;65745;50.278;18.192;2023-07-02T02:59:35;13.30;;;7.30;;
76795;SDS011;65745;50.278;18.192;2023-07-02T03:02:07;10.20;;;7.30;;
76795;SDS011;65745;50.278;18.192;2023-07-02T03:04:39;9.70;;;7.30;;
76795;SDS011;65745;50.278;18.192;2023-07-02T03:07:13;8.80;;;6.40;;
76795;SDS011;65745;50.278;18.192;2023-07-02T03:09:45;10.60;;;6.10;;
76795;SDS011;65745;50.278;18.192;2023-07-02T03:12:17;11.10;;;6.00;;
76795;SDS011;65745;50.278;18.192;2023-07-02T03:14:50;9.70;;;6.60;;
76795;SDS011;65745;50.278;18.192;2023-07-02T03:17:24;13.10;;;6.40;;
76795;SDS011;65745;50.278;18.192;2023-07-02T03:19:57;9.60;;;5.80;;
76795;SDS011;65745;50.278;18.192;2023-07-02T03:22:29;10.60;;;6.50;;
76795;SDS011;65745;50.278;18.192;2023-07-02T03:25:02;11.80;;;6.10;;
76795;SDS011;65745;50.278;18.192;2023-07-02T03:27:34;9.40;;;6.10;;
76795;SDS011;65745;50.278;18.192;2023-07-02T03:30:07;8.70;;;6.80;;
76795;SDS011;65745;50.278;18.192;2023-07-02T03:32:40;9.70;;;6.20;;
76795;SDS011;65745;50.278;18.192;2023-07-02T03:35:12;9.60;;;7.00;;
76795;SDS011;65745;50.278;18.192;2023-07-02T03:37:44;9.80;;;6.50;;
76795;SDS011;65745;50.278;18.192;2023-07-02T03:40:17;10.50;;;7.10;;
76795;SDS011;65745;50.278;18.192;2023-07-02T03:42:49;7.60;;;6.70;;
76795;SDS011;65745;50.278;18.192;2023-07-02T03:45:21;11.40;;;6.40;;
76795;SDS011;65745;50.278;18.192;2023-07-02T03:47:53;10.40;;;7.60;;
76795;SDS011;65745;50.278;18.192;2023-07-02T03:50:25;11.90;;;7.90;;
76795;SDS011;65745;50.278;18.192;2023-07-02T03:52:57;11.30;;;7.50;;
76795;SDS011;65745;50.278;18.192;2023-07-02T03:55:30;9.30;;;7.20;;
76795;SDS011;65745;50.278;18.192;2023-07-02T03:58:03;9.80;;;7.50;;
76795;SDS011;65745;50.278;18.192;2023-07-02T04:00:35;11.30;;;7.30;;
76795;SDS011;65745;50.278;18.192;2023-07-02T04:03:07;13.30;;;7.10;;
76795;SDS011;65745;50.278;18.192;2023-07-02T04:05:40;11.10;;;8.40;;
76795;SDS011;65745;50.278;18.192;2023-07-02T04:08:12;10.90;;;7.30;;
76795;SDS011;65745;50.278;18.192;2023-07-02T04:10:45;14.60;;;8.60;;
76795;SDS011;65745;50.278;18.192;2023-07-02T04:13:17;10.00;;;8.10;;
76795;SDS011;65745;50.278;18.192;2023-07-02T04:15:50;14.40;;;8.30;;
76795;SDS011;65745;50.278;18.192;2023-07-02T04:18:22;13.10;;;7.40;;
76795;SDS011;65745;50.278;18.192;2023-07-02T04:20:54;10.80;;;8.10;;
76795;SDS011;65745;50.278;18.192;2023-07-02T04:23:27;11.60;;;7.30;;
76795;SDS011;65745;50.278;18.192;2023-07-02T04:26:00;10.00;;;7.30;;
76795;SDS011;65745;50.278;18.192;2023-07-02T04:28:52;12.10;;;7.80;;
76795;SDS011;65745;50.278;18.192;2023-07-02T04:31:24;11.60;;;8.40;;
76795;SDS011;65745;50.278;18.192;2023-07-02T04:33:57;11.80;;;7.90;;
76795;SDS011;65745;50.278;18.192;2023-07-02T04:36:29;10.20;;;7.60;;
76795;SDS011;65745;50.278;18.192;2023-07-02T04:39:01;11.00;;;6.90;;
76795;SDS011;65745;50.278;18.192;2023-07-02T04:41:33;11.40;;;7.60;;
76795;SDS011;65745;50.278;18.192;2023-07-02T04:44:06;12.50;;;7.50;;
76795;SDS011;65745;50.278;18.192;2023-07-02T04:46:39;11.50;;;7.20;;
76795;SDS011;65745;50.278;18.192;2023-07-02T04:49:11;11.50;;;8.70;;
76795;SDS011;65745;50.278;18.192;2023-07-02T04:51:43;12.90;;;10.60;;
76795;SDS011;65745;50.278;18.192;2023-07-02T04:54:15;16.80;;;12.20;;
76795;SDS011;65745;50.278;18.192;2023-07-02T04:56:47;13.50;;;10.30;;
76795;SDS011;65745;50.278;18.192;2023-07-02T04:59:20;11.50;;;9.00;;
76795;SDS011;65745;50.278;18.192;2023-07-02T05:01:52;15.70;;;11.00;;
76795;SDS011;65745;50.278;18.192;2023-07-02T05:04:25;12.40;;;9.30;;
76795;SDS011;65745;50.278;18.192;2023-07-02T05:06:57;14.30;;;9.60;;
76795;SDS011;65745;50.278;18.192;2023-07-02T05:09:30;12.20;;;9.20;;
76795;SDS011;65745;50.278;18.192;2023-07-02T05:12:02;14.10;;;9.30;;
76795;SDS011;65745;50.278;18.192;2023-07-02T05:14:35;11.70;;;7.70;;
76795;SDS011;65745;50.278;18.192;2023-07-02T05:17:07;10.40;;;7.40;;
76795;SDS011;65745;50.278;18.192;2023-07-02T05:19:39;9.60;;;7.00;;
76795;SDS011;65745;50.278;18.192;2023-07-02T05:22:12;9.30;;;6.70;;
76795;SDS011;65745;50.278;18.192;2023-07-02T05:24:47;12.20;;;7.20;;
76795;SDS011;65745;50.278;18.192;2023-07-02T05:27:19;9.60;;;6.70;;
76795;SDS011;65745;50.278;18.192;2023-07-02T05:29:52;10.50;;;6.20;;
76795;SDS011;65745;50.278;18.192;2023-07-02T05:32:24;11.00;;;7.00;;
76795;SDS011;65745;50.278;18.192;2023-07-02T05:34:56;11.30;;;6.70;;
76795;SDS011;65745;50.278;18.192;2023-07-02T05:37:28;10.00;;;6.70;;
76795;SDS011;65745;50.278;18.192;2023-07-02T05:40:00;12.70;;;7.80;;
76795;SDS011;65745;50.278;18.192;2023-07-02T05:42:32;8.10;;;7.20;;
76795;SDS011;65745;50.278;18.192;2023-07-02T05:45:06;10.20;;;6.70;;
76795;SDS011;65745;50.278;18.192;2023-07-02T05:47:38;8.10;;;6.20;;
76795;SDS011;65745;50.278;18.192;2023-07-02T05:50:11;8.60;;;5.90;;
76795;SDS011;65745;50.278;18.192;2023-07-02T05:52:43;9.60;;;6.80;;
76795;SDS011;65745;50.278;18.192;2023-07-02T05:55:15;7.80;;;6.10;;
76795;SDS011;65745;50.278;18.192;2023-07-02T05:57:47;13.40;;;6.90;;
76795;SDS011;65745;50.278;18.192;2023-07-02T06:00:19;9.30;;;6.50;;
76795;SDS011;65745;50.278;18.192;2023-07-02T06:02:51;8.40;;;6.30;;
76795;SDS011;65745;50.278;18.192;2023-07-02T06:05:24;10.70;;;6.30;;
76795;SDS011;65745;50.278;18.192;2023-07-02T06:07:56;7.20;;;5.70;;
76795;SDS011;65745;50.278;18.192;2023-07-02T06:10:28;7.30;;;5.60;;
76795;SDS011;65745;50.278;18.192;2023-07-02T06:13:00;9.80;;;6.40;;
76795;SDS011;65745;50.278;18.192;2023-07-02T06:15:32;8.30;;;5.50;;
76795;SDS011;65745;50.278;18.192;2023-07-02T06:18:05;8.20;;;5.60;;
76795;SDS011;65745;50.278;18.192;2023-07-02T06:20:37;6.90;;;6.00;;
76795;SDS011;65745;50.278;18.192;2023-07-02T06:23:09;8.60;;;6.10;;
76795;SDS011;65745;50.278;18.192;2023-07-02T06:25:41;10.10;;;5.20;;
76795;SDS011;65745;50.278;18.192;2023-07-02T06:28:13;7.40;;;5.20;;
76795;SDS011;65745;50.278;18.192;2023-07-02T06:30:45;9.90;;;5.40;;
76795;SDS011;65745;50.278;18.192;2023-07-02T06:33:18;5.90;;;5.30;;
76795;SDS011;65745;50.278;18.192;2023-07-02T06:35:50;6.70;;;5.60;;
76795;SDS011;65745;50.278;18.192;2023-07-02T06:38:22;6.70;;;5.10;;
76795;SDS011;65745;50.278;18.192;2023-07-02T06:40:54;6.90;;;5.30;;
76795;SDS011;65745;50.278;18.192;2023-07-02T06:43:26;10.30;;;4.80;;
76795;SDS011;65745;50.278;18.192;2023-07-02T06:45:58;5.50;;;4.20;;
76795;SDS011;65745;50.278;18.192;2023-07-02T06:48:30;6.00;;;4.80;;
76795;SDS011;65745;50.278;18.192;2023-07-02T06:51:03;7.30;;;4.40;;
76795;SDS011;65745;50.278;18.192;2023-07-02T06:53:36;5.20;;;4.70;;
76795;SDS011;65745;50.278;18.192;2023-07-02T06:56:08;5.40;;;4.40;;
76795;SDS011;65745;50.278;18.192;2023-07-02T06:58:41;5.20;;;4.40;;
76795;SDS011;65745;50.278;18.192;2023-07-02T07:01:13;6.50;;;4.90;;
76795;SDS011;65745;50.278;18.192;2023-07-02T07:03:46;8.50;;;5.70;;
76795;SDS011;65745;50.278;18.192;2023-07-02T07:06:18;7.20;;;5.00;;
76795;SDS011;65745;50.278;18.192;2023-07-02T07:08:50;5.80;;;4.70;;
76795;SDS011;65745;50.278;18.192;2023-07-02T07:11:22;6.70;;;4.80;;
76795;SDS011;65745;50.278;18.192;2023-07-02T07:13:54;5.30;;;4.50;;
76795;SDS011;65745;50.278;18.192;2023-07-02T07:16:26;6.90;;;4.80;;
76795;SDS011;65745;50.278;18.192;2023-07-02T07:18:58;6.90;;;5.10;;
76795;SDS011;65745;50.278;18.192;2023-07-02T07:21:30;8.20;;;4.70;;
76795;SDS011;65745;50.278;18.192;2023-07-02T07:24:02;5.80;;;4.60;;
76795;SDS011;65745;50.278;18.192;2023-07-02T07:26:35;6.30;;;4.50;;
76795;SDS011;65745;50.278;18.192;2023-07-02T07:29:07;6.40;;;5.10;;
76795;SDS011;65745;50.278;18.192;2023-07-02T07:31:41;5.20;;;4.50;;
76795;SDS011;65745;50.278;18.192;2023-07-02T07:34:13;6.30;;;5.20;;
76795;SDS011;65745;50.278;18.192;2023-07-02T07:36:45;6.90;;;4.40;;
76795;SDS011;65745;50.278;18.192;2023-07-02T07:39:17;5.00;;;3.80;;
76795;SDS011;65745;50.278;18.192;2023-07-02T07:41:49;4.90;;;4.40;;
76795;SDS011;65745;50.278;18.192;2023-07-02T07:44:21;4.70;;;4.00;;
76795;SDS011;65745;50.278;18.192;2023-07-02T07:46:57;8.40;;;5.10;;
76795;SDS011;65745;50.278;18.192;2023-07-02T07:49:30;6.00;;;5.10;;
76795;SDS011;65745;50.278;18.192;2023-07-02T07:52:02;6.10;;;4.10;;
76795;SDS011;65745;50.278;18.192;2023-07-02T07:54:36;5.80;;;4.70;;
76795;SDS011;65745;50.278;18.192;2023-07-02T07:57:08;6.40;;;4.40;;
76795;SDS011;65745;50.278;18.192;2023-07-02T07:59:40;4.80;;;3.70;;
76795;SDS011;65745;50.278;18.192;2023-07-02T08:02:12;6.40;;;4.60;;
76795;SDS011;65745;50.278;18.192;2023-07-02T08:04:44;6.60;;;4.40;;
76795;SDS011;65745;50.278;18.192;2023-07-02T08:07:16;4.90;;;4.10;;
76795;SDS011;65745;50.278;18.192;2023-07-02T08:09:49;5.30;;;4.70;;
76795;SDS011;65745;50.278;18.192;2023-07-02T08:12:21;5.30;;;4.20;;
76795;SDS011;65745;50.278;18.192;2023-07-02T08:14:55;5.00;;;4.40;;
76795;SDS011;65745;50.278;18.192;2023-07-02T08:17:28;7.60;;;4.10;;
76795;SDS011;65745;50.278;18.192;2023-07-02T08:20:00;8.90;;;4.30;;
76795;SDS011;65745;50.278;18.192;2023-07-02T08:22:34;6.50;;;4.50;;
76795;SDS011;65745;50.278;18.192;2023-07-02T08:25:06;5.40;;;4.10;;
76795;SDS011;65745;50.278;18.192;2023-07-02T08:27:39;5.30;;;4.10;;
76795;SDS011;65745;50.278;18.192;2023-07-02T08:30:11;6.10;;;4.30;;
76795;SDS011;65745;50.278;18.192;2023-07-02T08:32:43;5.00;;;4.30;;
76795;SDS011;65745;50.278;18.192;2023-07-02T08:35:17;5.50;;;4.30;;
76795;SDS011;65745;50.278;18.192;2023-07-02T08:37:50;7.30;;;4.30;;
76795;SDS011;65745;50.278;18.192;2023-07-02T08:40:22;5.30;;;4.00;;
76795;SDS011;65745;50.278;18.192;2023-07-02T08:42:54;4.40;;;4.00;;
76795;SDS011;65745;50.278;18.192;2023-07-02T08:45:30;7.70;;;4.20;;
76795;SDS011;65745;50.278;18.192;2023-07-02T08:48:03;5.40;;;4.70;;
76795;SDS011;65745;50.278;18.192;2023-07-02T08:50:36;5.40;;;4.30;;
76795;SDS011;65745;50.278;18.192;2023-07-02T08:53:09;4.30;;;3.80;;
76795;SDS011;65745;50.278;18.192;2023-07-02T08:55:41;4.60;;;3.50;;
76795;SDS011;65745;50.278;18.192;2023-07-02T08:58:14;4.80;;;3.90;;
76795;SDS011;65745;50.278;18.192;2023-07-02T09:03:39;4.70;;;3.50;;
76795;SDS011;65745;50.278;18.192;2023-07-02T09:06:12;5.20;;;3.40;;
76795;SDS011;65745;50.278;18.192;2023-07-02T09:08:47;4.40;;;3.70;;
76795;SDS011;65745;50.278;18.192;2023-07-02T09:11:19;4.70;;;3.60;;
76795;SDS011;65745;50.278;18.192;2023-07-02T09:13:52;4.50;;;4.10;;
76795;SDS011;65745;50.278;18.192;2023-07-02T09:16:28;5.20;;;3.90;;
76795;SDS011;65745;50.278;18.192;2023-07-02T09:19:04;6.60;;;3.70;;
76795;SDS011;65745;50.278;18.192;2023-07-02T09:21:41;5.30;;;3.50;;
76795;SDS011;65745;50.278;18.192;2023-07-02T09:24:15;3.80;;;3.30;;
76795;SDS011;65745;50.278;18.192;2023-07-02T09:26:49;3.80;;;3.40;;
76795;SDS011;65745;50.278;18.192;2023-07-02T09:29:23;4.80;;;3.70;;
76795;SDS011;65745;50.278;18.192;2023-07-02T09:31:58;3.40;;;3.10;;
76795;SDS011;65745;50.278;18.192;2023-07-02T09:37:11;3.90;;;3.40;;
76795;SDS011;65745;50.278;18.192;2023-07-02T09:39:43;3.80;;;3.20;;
76795;SDS011;65745;50.278;18.192;2023-07-02T09:42:20;4.30;;;3.60;;
76795;SDS011;65745;50.278;18.192;2023-07-02T09:44:53;4.10;;;3.20;;
76795;SDS011;65745;50.278;18.192;2023-07-02T09:47:27;5.40;;;3.40;;
76795;SDS011;65745;50.278;18.192;2023-07-02T09:50:04;4.10;;;3.10;;
76795;SDS011;65745;50.278;18.192;2023-07-02T09:52:37;4.20;;;3.00;;
76795;SDS011;65745;50.278;18.192;2023-07-02T09:55:11;4.70;;;2.90;;
76795;SDS011;65745;50.278;18.192;2023-07-02T09:57:44;3.50;;;3.10;;
76795;SDS011;65745;50.278;18.192;2023-07-02T10:00:17;3.70;;;3.00;;
76795;SDS011;65745;50.278;18.192;2023-07-02T10:02:49;4.90;;;3.40;;
76795;SDS011;65745;50.278;18.192;2023-07-02T10:05:28;5.30;;;3.10;;
76795;SDS011;65745;50.278;18.192;2023-07-02T10:08:12;3.50;;;3.20;;
76795;SDS011;65745;50.278;18.192;2023-07-02T10:10:47;4.70;;;3.10;;
76795;SDS011;65745;50.278;18.192;2023-07-02T10:13:27;4.10;;;3.50;;
76795;SDS011;65745;50.278;18.192;2023-07-02T10:16:03;4.00;;;3.00;;
76795;SDS011;65745;50.278;18.192;2023-07-02T10:18:36;3.70;;;3.00;;
76795;SDS011;65745;50.278;18.192;2023-07-02T10:21:16;3.90;;;3.30;;
76795;SDS011;65745;50.278;18.192;2023-07-02T10:23:48;6.50;;;3.40;;
76795;SDS011;65745;50.278;18.192;2023-07-02T10:26:21;3.80;;;2.90;;
76795;SDS011;65745;50.278;18.192;2023-07-02T10:28:59;4.70;;;3.90;;
76795;SDS011;65745;50.278;18.192;2023-07-02T10:31:31;4.60;;;3.70;;
76795;SDS011;65745;50.278;18.192;2023-07-02T10:34:04;3.70;;;3.30;;
76795;SDS011;65745;50.278;18.192;2023-07-02T10:36:36;3.20;;;2.90;;
76795;SDS011;65745;50.278;18.192;2023-07-02T10:39:08;3.70;;;3.10;;
76795;SDS011;65745;50.278;18.192;2023-07-02T10:41:40;5.50;;;3.10;;
76795;SDS011;65745;50.278;18.192;2023-07-02T10:44:12;3.90;;;3.10;;
76795;SDS011;65745;50.278;18.192;2023-07-02T10:46:45;3.10;;;2.70;;
76795;SDS011;65745;50.278;18.192;2023-07-02T10:49:20;3.20;;;2.80;;
76795;SDS011;65745;50.278;18.192;2023-07-02T10:52:00;3.90;;;3.10;;
76795;SDS011;65745;50.278;18.192;2023-07-02T10:54:40;3.30;;;2.80;;
76795;SDS011;65745;50.278;18.192;2023-07-02T10:57:14;3.10;;;2.80;;
76795;SDS011;65745;50.278;18.192;2023-07-02T10:59:50;3.40;;;2.90;;
76795;SDS011;65745;50.278;18.192;2023-07-02T11:02:22;3.50;;;3.20;;
76795;SDS011;65745;50.278;18.192;2023-07-02T11:04:54;3.60;;;3.20;;
76795;SDS011;65745;50.278;18.192;2023-07-02T11:07:28;4.90;;;3.30;;
76795;SDS011;65745;50.278;18.192;2023-07-02T11:10:00;3.10;;;2.80;;
76795;SDS011;65745;50.278;18.192;2023-07-02T11:12:32;3.80;;;2.90;;
76795;SDS011;65745;50.278;18.192;2023-07-02T11:15:09;3.20;;;1.90;;
76795;SDS011;65745;50.278;18.192;2023-07-02T11:17:42;6.00;;;1.60;;
76795;SDS011;65745;50.278;18.192;2023-07-02T11:20:15;2.90;;;1.80;;
76795;SDS011;65745;50.278;18.192;2023-07-02T11:22:47;2.40;;;1.50;;
76795;SDS011;65745;50.278;18.192;2023-07-02T11:25:19;4.20;;;1.90;;
76795;SDS011;65745;50.278;18.192;2023-07-02T11:28:01;3.60;;;1.90;;
76795;SDS011;65745;50.278;18.192;2023-07-02T11:30:44;2.50;;;1.70;;
76795;SDS011;65745;50.278;18.192;2023-07-02T11:33:17;6.40;;;2.10;;
76795;SDS011;65745;50.278;18.192;2023-07-02T11:35:49;3.80;;;2.10;;
76795;SDS011;65745;50.278;18.192;2023-07-02T11:38:21;3.90;;;1.80;;
76795;SDS011;65745;50.278;18.192;2023-07-02T11:40:53;5.60;;;2.20;;
76795;SDS011;65745;50.278;18.192;2023-07-02T11:43:26;2.40;;;1.70;;
76795;SDS011;65745;50.278;18.192;2023-07-02T11:45:58;2.70;;;1.70;;
76795;SDS011;65745;50.278;18.192;2023-07-02T11:48:30;2.40;;;1.60;;
76795;SDS011;65745;50.278;18.192;2023-07-02T11:51:02;2.60;;;2.00;;
76795;SDS011;65745;50.278;18.192;2023-07-02T11:53:35;1.90;;;1.50;;
76795;SDS011;65745;50.278;18.192;2023-07-02T11:56:08;2.20;;;1.90;;
76795;SDS011;65745;50.278;18.192;2023-07-02T11:58:42;2.00;;;1.80;;
76795;SDS011;65745;50.278;18.192;2023-07-02T12:01:14;3.20;;;2.00;;
76795;SDS011;65745;50.278;18.192;2023-07-02T12:03:46;2.50;;;1.90;;
76795;SDS011;65745;50.278;18.192;2023-07-02T12:06:18;2.10;;;1.90;;
76795;SDS011;65745;50.278;18.192;2023-07-02T12:08:51;3.30;;;1.90;;
76795;SDS011;65745;50.278;18.192;2023-07-02T12:11:23;2.10;;;1.60;;
76795;SDS011;65745;50.278;18.192;2023-07-02T12:13:55;2.30;;;1.70;;
76795;SDS011;65745;50.278;18.192;2023-07-02T12:16:27;2.90;;;1.70;;
76795;SDS011;65745;50.278;18.192;2023-07-02T12:19:00;1.90;;;1.70;;
76795;SDS011;65745;50.278;18.192;2023-07-02T12:21:32;3.20;;;1.70;;
76795;SDS011;65745;50.278;18.192;2023-07-02T12:24:04;3.10;;;1.70;;
76795;SDS011;65745;50.278;18.192;2023-07-02T12:26:38;2.20;;;1.60;;
76795;SDS011;65745;50.278;18.192;2023-07-02T12:29:11;2.10;;;1.90;;
76795;SDS011;65745;50.278;18.192;2023-07-02T12:31:43;2.40;;;1.80;;
76795;SDS011;65745;50.278;18.192;2023-07-02T12:34:15;2.40;;;2.20;;
76795;SDS011;65745;50.278;18.192;2023-07-02T12:36:47;2.10;;;1.80;;
76795;SDS011;65745;50.278;18.192;2023-07-02T12:39:20;2.10;;;1.80;;
76795;SDS011;65745;50.278;18.192;2023-07-02T12:41:52;2.20;;;1.60;;
76795;SDS011;65745;50.278;18.192;2023-07-02T12:44:24;2.60;;;1.90;;
76795;SDS011;65745;50.278;18.192;2023-07-02T12:46:56;3.60;;;1.80;;
76795;SDS011;65745;50.278;18.192;2023-07-02T12:49:29;1.70;;;1.60;;
76795;SDS011;65745;50.278;18.192;2023-07-02T12:52:01;3.30;;;1.90;;
76795;SDS011;65745;50.278;18.192;2023-07-02T12:54:34;2.20;;;1.70;;
76795;SDS011;65745;50.278;18.192;2023-07-02T12:57:07;2.00;;;1.60;;
76795;SDS011;65745;50.278;18.192;2023-07-02T12:59:39;2.00;;;1.50;;
76795;SDS011;65745;50.278;18.192;2023-07-02T13:02:11;2.00;;;1.70;;
76795;SDS011;65745;50.278;18.192;2023-07-02T13:04:44;2.40;;;1.80;;
76795;SDS011;65745;50.278;18.192;2023-07-02T13:07:16;3.20;;;1.90;;
76795;SDS011;65745;50.278;18.192;2023-07-02T13:09:49;2.00;;;1.80;;
76795;SDS011;65745;50.278;18.192;2023-07-02T13:12:21;2.50;;;2.00;;
76795;SDS011;65745;50.278;18.192;2023-07-02T13:14:53;2.30;;;1.80;;
76795;SDS011;65745;50.278;18.192;2023-07-02T13:17:25;2.00;;;1.80;;
76795;SDS011;65745;50.278;18.192;2023-07-02T13:19:57;2.50;;;2.20;;
76795;SDS011;65745;50.278;18.192;2023-07-02T13:22:30;2.60;;;1.80;;
76795;SDS011;65745;50.278;18.192;2023-07-02T13:25:02;2.10;;;1.90;;
76795;SDS011;65745;50.278;18.192;2023-07-02T13:27:35;2.50;;;2.10;;
76795;SDS011;65745;50.278;18.192;2023-07-02T13:30:08;2.20;;;1.90;;
76795;SDS011;65745;50.278;18.192;2023-07-02T13:32:41;2.20;;;1.90;;
76795;SDS011;65745;50.278;18.192;2023-07-02T13:35:13;1.90;;;1.70;;
76795;SDS011;65745;50.278;18.192;2023-07-02T13:37:45;2.70;;;1.90;;
76795;SDS011;65745;50.278;18.192;2023-07-02T13:40:18;2.40;;;1.70;;
76795;SDS011;65745;50.278;18.192;2023-07-02T13:42:50;3.00;;;1.80;;
76795;SDS011;65745;50.278;18.192;2023-07-02T13:45:22;2.20;;;1.80;;
76795;SDS011;65745;50.278;18.192;2023-07-02T13:47:54;2.30;;;1.80;;
76795;SDS011;65745;50.278;18.192;2023-07-02T13:50:26;2.30;;;1.80;;
76795;SDS011;65745;50.278;18.192;2023-07-02T13:52:58;3.80;;;2.20;;
76795;SDS011;65745;50.278;18.192;2023-07-02T13:55:30;2.50;;;2.10;;
76795;SDS011;65745;50.278;18.192;2023-07-02T13:58:03;2.30;;;1.90;;
76795;SDS011;65745;50.278;18.192;2023-07-02T14:00:35;2.20;;;1.80;;
76795;SDS011;65745;50.278;18.192;2023-07-02T14:03:07;2.80;;;1.80;;
76795;SDS011;65745;50.278;18.192;2023-07-02T14:05:39;2.40;;;1.90;;
76795;SDS011;65745;50.278;18.192;2023-07-02T14:08:11;2.20;;;1.60;;
76795;SDS011;65745;50.278;18.192;2023-07-02T14:10:43;2.90;;;2.00;;
76795;SDS011;65745;50.278;18.192;2023-07-02T14:13:16;2.30;;;1.60;;
76795;SDS011;65745;50.278;18.192;2023-07-02T14:15:49;2.50;;;1.70;;
76795;SDS011;65745;50.278;18.192;2023-07-02T14:18:22;2.60;;;1.90;;
76795;SDS011;65745;50.278;18.192;2023-07-02T14:20:54;2.20;;;1.90;;
76795;SDS011;65745;50.278;18.192;2023-07-02T14:23:26;1.90;;;1.60;;
76795;SDS011;65745;50.278;18.192;2023-07-02T14:25:58;2.10;;;1.70;;
76795;SDS011;65745;50.278;18.192;2023-07-02T14:28:30;2.30;;;1.60;;
76795;SDS011;65745;50.278;18.192;2023-07-02T14:31:03;2.00;;;1.70;;
76795;SDS011;65745;50.278;18.192;2023-07-02T14:33:36;2.40;;;1.60;;
76795;SDS011;65745;50.278;18.192;2023-07-02T14:36:09;2.20;;;1.70;;
76795;SDS011;65745;50.278;18.192;2023-07-02T14:38:41;2.00;;;1.70;;
76795;SDS011;65745;50.278;18.192;2023-07-02T14:41:13;3.10;;;1.80;;
76795;SDS011;65745;50.278;18.192;2023-07-02T14:43:45;2.40;;;1.80;;
76795;SDS011;65745;50.278;18.192;2023-07-02T14:46:17;2.30;;;1.90;;
76795;SDS011;65745;50.278;18.192;2023-07-02T14:48:51;1.70;;;1.60;;
76795;SDS011;65745;50.278;18.192;2023-07-02T14:51:23;2.00;;;1.60;;
76795;SDS011;65745;50.278;18.192;2023-07-02T14:53:55;2.20;;;1.60;;
76795;SDS011;65745;50.278;18.192;2023-07-02T14:56:27;2.20;;;1.70;;
76795;SDS011;65745;50.278;18.192;2023-07-02T14:59:00;3.00;;;2.20;;
76795;SDS011;65745;50.278;18.192;2023-07-02T15:01:32;3.10;;;1.90;;
76795;SDS011;65745;50.278;18.192;2023-07-02T15:04:04;1.90;;;1.60;;
76795;SDS011;65745;50.278;18.192;2023-07-02T15:06:37;2.00;;;1.80;;
76795;SDS011;65745;50.278;18.192;2023-07-02T15:09:09;3.00;;;1.80;;
76795;SDS011;65745;50.278;18.192;2023-07-02T15:11:41;2.30;;;1.90;;